createdAt,value
2018-06-23T00:01:13.143Z,6.57
2018-06-23T00:03:41.758Z,7.47
2018-06-23T00:06:10.423Z,9.07
2018-06-23T00:08:39.050Z,4.67
2018-06-23T00:11:07.642Z,5.33
2018-06-23T00:13:36.269Z,9.17
2018-06-23T00:16:04.954Z,6.70
2018-06-23T00:18:33.576Z,4.97
2018-06-23T00:21:02.299Z,7.33
2018-06-23T00:23:30.966Z,6.97
2018-06-23T00:26:04.939Z,9.03
2018-06-23T00:28:33.576Z,5.40
2018-06-23T00:31:02.141Z,5.50
2018-06-23T00:33:30.720Z,5.63
2018-06-23T00:35:59.334Z,7.37
2018-06-23T00:38:27.899Z,7.23
2018-06-23T00:40:56.502Z,5.67
2018-06-23T00:43:25.085Z,1.87
2018-06-23T00:45:53.661Z,4.10
2018-06-23T00:48:22.288Z,6.03
2018-06-23T00:50:50.910Z,4.73
2018-06-23T00:53:19.494Z,8.63
2018-06-23T00:55:48.073Z,5.67
2018-06-23T00:58:16.668Z,5.90
2018-06-23T01:00:45.285Z,5.03
2018-06-23T01:03:13.894Z,3.97
2018-06-23T01:05:42.532Z,3.87
2018-06-23T01:08:11.137Z,3.83
2018-06-23T01:10:39.753Z,6.47
2018-06-23T01:13:08.326Z,5.07
2018-06-23T01:15:36.969Z,5.10
2018-06-23T01:18:05.829Z,9.63
2018-06-23T01:20:34.428Z,9.60
2018-06-23T01:23:03.029Z,9.43
2018-06-23T01:25:31.643Z,9.00
2018-06-23T01:28:00.245Z,5.27
2018-06-23T01:30:28.879Z,6.47
2018-06-23T01:32:57.460Z,5.10
2018-06-23T01:35:26.069Z,3.50
2018-06-23T01:37:54.632Z,4.33
2018-06-23T01:40:23.291Z,4.73
2018-06-23T01:42:51.870Z,6.13
2018-06-23T01:45:20.458Z,6.53
2018-06-23T01:47:49.086Z,9.43
2018-06-23T01:50:17.709Z,5.47
2018-06-23T01:52:46.277Z,6.87
2018-06-23T01:55:14.877Z,2.53
2018-06-23T01:57:43.432Z,5.27
2018-06-23T02:00:12.814Z,6.33
2018-06-23T02:02:41.400Z,6.40
2018-06-23T02:05:09.972Z,6.57
2018-06-23T02:07:38.576Z,7.67
2018-06-23T02:10:07.188Z,5.83
2018-06-23T02:12:35.783Z,9.33
2018-06-23T02:15:11.337Z,7.67
2018-06-23T02:17:45.262Z,4.17
2018-06-23T02:20:19.147Z,6.93
2018-06-23T02:22:53.126Z,9.83
2018-06-23T02:26:26.801Z,5.73
2018-06-23T02:29:00.674Z,5.73
2018-06-23T02:31:34.689Z,7.83
2018-06-23T02:34:08.560Z,6.03
2018-06-23T02:36:37.146Z,5.43
2018-06-23T02:39:08.271Z,9.83
2018-06-23T02:41:36.853Z,4.40
2018-06-23T02:44:05.511Z,5.53
2018-06-23T02:46:34.105Z,12.67
2018-06-23T02:49:02.712Z,6.57
2018-06-23T02:51:31.287Z,7.47
2018-06-23T02:53:59.917Z,4.47
2018-06-23T02:56:28.546Z,9.57
2018-06-23T02:58:57.150Z,6.67
2018-06-23T03:01:25.761Z,7.50
2018-06-23T03:03:54.333Z,6.30
2018-06-23T03:06:22.942Z,5.93
2018-06-23T03:08:51.541Z,7.57
2018-06-23T03:11:21.015Z,7.93
2018-06-23T03:13:49.823Z,4.57
2018-06-23T03:16:18.429Z,8.80
2018-06-23T03:18:46.996Z,8.57
2018-06-23T03:21:15.610Z,6.33
2018-06-23T03:23:44.238Z,8.33
2018-06-23T03:26:12.845Z,7.50
2018-06-23T03:28:41.414Z,9.00
2018-06-23T03:31:10.055Z,5.23
2018-06-23T03:33:38.713Z,9.47
2018-06-23T03:36:07.403Z,5.13
2018-06-23T03:38:36.042Z,7.67
2018-06-23T03:41:04.662Z,4.83
2018-06-23T03:43:33.257Z,4.90
2018-06-23T03:46:01.812Z,7.37
2018-06-23T03:48:30.429Z,7.23
2018-06-23T03:50:58.993Z,9.67
2018-06-23T03:53:27.597Z,8.57
2018-06-23T03:55:56.222Z,11.33
2018-06-23T03:58:24.809Z,8.13
2018-06-23T04:00:57.423Z,11.87
2018-06-23T04:03:27.773Z,5.90
2018-06-23T04:05:56.371Z,9.93
2018-06-23T04:08:24.962Z,7.20
2018-06-23T04:10:53.540Z,10.83
2018-06-23T04:13:22.133Z,6.10
2018-06-23T04:15:50.749Z,4.77
2018-06-23T04:18:19.365Z,10.77
2018-06-23T04:20:47.978Z,10.87
2018-06-23T04:23:16.605Z,6.33
2018-06-23T04:25:45.271Z,7.07
2018-06-23T04:28:13.877Z,6.33
2018-06-23T04:30:42.501Z,7.80
2018-06-23T04:33:11.078Z,7.30
2018-06-23T04:35:39.663Z,6.97
2018-06-23T04:38:08.260Z,7.40
2018-06-23T04:40:36.949Z,6.47
2018-06-23T04:43:05.543Z,6.07
2018-06-23T04:45:34.128Z,8.67
2018-06-23T04:48:02.729Z,6.83
2018-06-23T04:50:31.296Z,8.27
2018-06-23T04:52:59.882Z,9.37
2018-06-23T04:55:28.462Z,8.47
2018-06-23T04:57:57.100Z,6.00
2018-06-23T05:00:26.237Z,8.97
2018-06-23T05:02:55.871Z,7.10
2018-06-23T05:05:25.057Z,4.30
2018-06-23T05:07:53.719Z,3.63
2018-06-23T05:10:22.305Z,7.67
2018-06-23T05:12:50.989Z,9.57
2018-06-23T05:15:19.586Z,9.80
2018-06-23T05:17:48.178Z,10.07
2018-06-23T05:20:16.810Z,10.53
2018-06-23T05:22:45.353Z,4.77
2018-06-23T05:25:14.261Z,6.37
2018-06-23T05:27:42.885Z,10.73
2018-06-23T05:30:11.483Z,9.17
2018-06-23T05:32:40.085Z,7.77
2018-06-23T05:35:08.697Z,8.83
2018-06-23T05:37:37.336Z,8.20
2018-06-23T05:40:06.015Z,9.20
2018-06-23T05:42:34.604Z,7.07
2018-06-23T05:45:03.265Z,7.63
2018-06-23T05:47:31.862Z,11.60
2018-06-23T05:50:00.483Z,6.10
2018-06-23T05:52:29.057Z,8.80
2018-06-23T05:54:57.652Z,9.63
2018-06-23T05:57:26.225Z,7.70
2018-06-23T05:59:55.922Z,10.77
2018-06-23T06:02:24.549Z,9.33
2018-06-23T06:04:53.130Z,7.73
2018-06-23T06:07:21.766Z,8.63
2018-06-23T06:09:50.389Z,11.03
2018-06-23T06:12:18.972Z,6.93
2018-06-23T06:14:47.621Z,11.37
2018-06-23T06:17:24.118Z,10.50
2018-06-23T06:19:54.312Z,10.27
2018-06-23T06:22:23.954Z,6.37
2018-06-23T06:24:52.573Z,7.43
2018-06-23T06:27:23.409Z,8.67
2018-06-23T06:29:52.886Z,7.83
2018-06-23T06:32:21.698Z,7.70
2018-06-23T06:34:50.330Z,5.03
2018-06-23T06:37:18.954Z,6.73
2018-06-23T06:39:47.825Z,7.90
2018-06-23T06:42:16.814Z,10.63
2018-06-23T06:44:45.474Z,10.57
2018-06-23T06:47:16.757Z,6.67
2018-06-23T06:49:45.365Z,7.03
2018-06-23T06:52:14.089Z,8.67
2018-06-23T06:54:42.981Z,7.33
2018-06-23T06:57:11.639Z,7.87
2018-06-23T06:59:40.213Z,4.73
2018-06-23T07:02:08.857Z,11.27
2018-06-23T07:04:37.450Z,6.27
2018-06-23T07:07:06.021Z,8.53
2018-06-23T07:09:34.642Z,7.13
2018-06-23T07:12:03.274Z,8.57
2018-06-23T07:14:31.895Z,4.60
2018-06-23T07:17:00.479Z,7.73
2018-06-23T07:19:29.076Z,5.10
2018-06-23T07:21:57.657Z,6.73
2018-06-23T07:24:26.373Z,5.90
2018-06-23T07:26:55.031Z,5.97
2018-06-23T07:29:23.630Z,6.80
2018-06-23T07:31:52.221Z,10.30
2018-06-23T07:34:20.896Z,8.60
2018-06-23T07:36:49.461Z,12.27
2018-06-23T07:39:18.065Z,6.27
2018-06-23T07:41:46.677Z,7.43
2018-06-23T07:44:15.280Z,10.77
2018-06-23T07:46:43.505Z,6.70
2018-06-23T07:49:12.133Z,7.50
2018-06-23T07:51:40.716Z,7.30
2018-06-23T07:54:09.329Z,10.47
2018-06-23T07:56:37.970Z,8.03
2018-06-23T07:59:06.579Z,8.50
2018-06-23T08:01:35.198Z,9.53
2018-06-23T08:04:03.838Z,8.00
2018-06-23T08:06:32.447Z,9.23
2018-06-23T08:09:01.042Z,5.93
2018-06-23T08:11:29.669Z,6.10
2018-06-23T08:13:58.254Z,6.23
2018-06-23T08:16:26.905Z,7.37
2018-06-23T08:18:55.542Z,8.03
2018-06-23T08:21:24.183Z,7.53
2018-06-23T08:23:52.844Z,6.80
2018-06-23T08:26:21.560Z,9.27
2018-06-23T08:28:50.067Z,7.93
2018-06-23T08:31:18.665Z,6.80
2018-06-23T08:33:47.285Z,8.57
2018-06-23T08:36:15.909Z,7.90
2018-06-23T08:38:44.502Z,9.10
2018-06-23T08:41:13.077Z,8.07
2018-06-23T08:43:41.775Z,7.17
2018-06-23T08:46:10.353Z,9.40
2018-06-23T08:48:39.045Z,6.37
2018-06-23T08:51:10.553Z,6.90
2018-06-23T08:53:39.177Z,6.07
2018-06-23T08:56:07.773Z,6.60
2018-06-23T08:58:36.350Z,5.43
2018-06-23T09:01:05.054Z,8.10
2018-06-23T09:03:33.641Z,8.57
2018-06-23T09:06:01.878Z,6.27
2018-06-23T09:08:30.453Z,6.17
2018-06-23T09:10:59.141Z,7.37
2018-06-23T09:13:27.714Z,7.40
2018-06-23T09:15:56.486Z,4.67
2018-06-23T09:18:25.062Z,5.63
2018-06-23T09:20:53.701Z,4.43
2018-06-23T09:23:22.347Z,5.13
2018-06-23T09:25:51.062Z,5.90
2018-06-23T09:28:19.659Z,8.97
2018-06-23T09:30:48.282Z,8.07
2018-06-23T09:33:16.878Z,7.70
2018-06-23T09:35:45.463Z,3.73
2018-06-23T09:38:14.070Z,7.10
2018-06-23T09:40:42.660Z,4.90
2018-06-23T09:43:11.277Z,7.63
2018-06-23T09:45:39.885Z,10.20
2018-06-23T09:48:08.502Z,10.20
2018-06-23T09:50:37.086Z,8.57
2018-06-23T09:53:05.698Z,4.83
2018-06-23T09:55:34.283Z,4.33
2018-06-23T09:58:02.901Z,8.87
2018-06-23T10:00:31.492Z,8.70
2018-06-23T10:03:01.615Z,3.93
2018-06-23T10:05:30.517Z,5.73
2018-06-23T10:08:00.045Z,5.83
2018-06-23T10:10:29.373Z,4.20
2018-06-23T10:12:58.077Z,5.40
2018-06-23T10:15:26.725Z,8.73
2018-06-23T10:17:55.933Z,7.23
2018-06-23T10:20:26.360Z,4.13
2018-06-23T10:22:55.306Z,6.43
2018-06-23T10:25:23.989Z,5.70
2018-06-23T10:27:52.594Z,5.07
2018-06-23T10:30:21.193Z,5.70
2018-06-23T10:32:49.758Z,5.70
2018-06-23T10:35:18.373Z,3.73
2018-06-23T10:37:46.977Z,8.07
2018-06-23T10:40:15.559Z,5.73
2018-06-23T10:42:44.148Z,4.23
2018-06-23T10:45:12.785Z,6.03
2018-06-23T10:47:41.368Z,6.77
2018-06-23T10:50:10.004Z,5.13
2018-06-23T10:52:38.597Z,4.17
2018-06-23T10:55:07.405Z,4.53
2018-06-23T10:57:36.934Z,7.20
2018-06-23T11:00:06.029Z,8.70
2018-06-23T11:02:34.692Z,8.27
2018-06-23T11:05:03.381Z,5.57
2018-06-23T11:07:32.034Z,9.17
2018-06-23T11:10:00.621Z,5.53
2018-06-23T11:12:29.249Z,3.40
2018-06-23T11:14:57.826Z,3.70
2018-06-23T11:17:26.466Z,5.60
2018-06-23T11:19:55.817Z,6.83
2018-06-23T11:22:24.697Z,4.07
2018-06-23T11:24:53.300Z,4.97
2018-06-23T11:27:21.934Z,3.80
2018-06-23T11:29:50.565Z,4.10
2018-06-23T11:32:19.253Z,5.47
2018-06-23T11:34:47.890Z,5.23
2018-06-23T11:37:16.546Z,4.83
2018-06-23T11:39:45.205Z,4.47
2018-06-23T11:42:13.804Z,5.33
2018-06-23T11:44:42.386Z,2.33
2018-06-23T11:47:10.974Z,3.80
2018-06-23T11:49:39.746Z,2.53
2018-06-23T11:52:08.367Z,3.77
2018-06-23T11:54:36.957Z,3.20
2018-06-23T11:57:05.970Z,3.77
2018-06-23T11:59:34.550Z,4.47
2018-06-23T12:02:03.257Z,3.87
2018-06-23T12:04:33.243Z,4.87
2018-06-23T12:07:01.891Z,4.90
2018-06-23T12:09:30.566Z,3.97
2018-06-23T12:11:59.213Z,3.17
2018-06-23T12:14:27.792Z,4.63
2018-06-23T12:16:56.450Z,4.90
2018-06-23T12:19:25.037Z,2.20
2018-06-23T12:21:54.341Z,6.27
2018-06-23T12:24:22.945Z,3.63
2018-06-23T12:26:51.646Z,2.30
2018-06-23T12:29:20.254Z,6.10
2018-06-23T12:31:48.868Z,2.77
2018-06-23T12:34:17.472Z,3.17
2018-06-23T12:36:46.106Z,2.13
2018-06-23T12:39:16.808Z,2.27
2018-06-23T12:41:45.815Z,1.60
2018-06-23T12:44:14.409Z,2.77
2018-06-23T12:46:43.001Z,2.53
2018-06-23T12:49:11.709Z,2.70
2018-06-23T12:51:40.322Z,4.37
2018-06-23T12:54:08.926Z,2.80
2018-06-23T12:56:37.578Z,2.70
2018-06-23T12:59:06.241Z,3.83
2018-06-23T13:01:34.853Z,3.93
2018-06-23T13:04:03.461Z,2.63
2018-06-23T13:06:32.085Z,3.80
2018-06-23T13:09:00.701Z,3.03
2018-06-23T13:11:29.285Z,3.83
2018-06-23T13:13:57.905Z,2.30
2018-06-23T13:16:26.509Z,3.17
2018-06-23T13:18:55.421Z,2.40
2018-06-23T13:21:24.067Z,3.30
2018-06-23T13:23:52.650Z,6.17
2018-06-23T13:26:21.257Z,2.73
2018-06-23T13:28:49.845Z,4.00
2018-06-23T13:31:18.469Z,3.00
2018-06-23T13:33:47.060Z,5.67
2018-06-23T13:36:15.780Z,2.43
2018-06-23T13:38:44.442Z,3.70
2018-06-23T13:41:13.041Z,3.17
2018-06-23T13:43:41.686Z,5.70
2018-06-23T13:46:10.293Z,2.83
2018-06-23T13:48:38.942Z,4.67
2018-06-23T13:51:07.622Z,3.40
2018-06-23T13:53:36.225Z,4.30
2018-06-23T13:56:04.919Z,4.17
2018-06-23T13:58:33.621Z,4.70
2018-06-23T14:01:02.233Z,4.80
2018-06-23T14:03:30.821Z,5.00
2018-06-23T14:05:59.718Z,4.57
2018-06-23T14:08:28.317Z,4.27
2018-06-23T14:10:56.922Z,3.67
2018-06-23T14:13:25.501Z,3.23
2018-06-23T14:15:54.149Z,2.50
2018-06-23T14:18:22.761Z,3.77
2018-06-23T14:20:51.331Z,3.93
2018-06-23T14:23:19.974Z,5.10
2018-06-23T14:25:48.593Z,3.17
2018-06-23T14:28:17.227Z,2.20
2018-06-23T14:30:45.805Z,2.47
2018-06-23T14:33:14.382Z,3.40
2018-06-23T14:35:43.194Z,1.93
2018-06-23T14:38:11.825Z,3.80
2018-06-23T14:40:40.509Z,3.13
2018-06-23T14:43:09.117Z,2.93
2018-06-23T14:45:37.733Z,3.20
2018-06-23T14:48:06.355Z,4.07
2018-06-23T14:50:34.978Z,4.23
2018-06-23T14:53:03.556Z,2.60
2018-06-23T14:55:32.138Z,3.10
2018-06-23T14:58:03.062Z,3.40
2018-06-23T15:00:31.681Z,4.30
2018-06-23T15:03:00.279Z,3.60
2018-06-23T15:05:28.867Z,4.87
2018-06-23T15:08:07.521Z,5.20
2018-06-23T15:10:47.169Z,3.63
2018-06-23T15:13:17.741Z,3.20
2018-06-23T15:15:46.526Z,3.53
2018-06-23T15:18:15.201Z,3.53
2018-06-23T15:20:43.931Z,2.93
2018-06-23T15:23:12.850Z,2.70
2018-06-23T15:25:41.522Z,2.53
2018-06-23T15:28:10.147Z,2.87
2018-06-23T15:30:38.761Z,2.70
2018-06-23T15:33:07.353Z,3.20
2018-06-23T15:35:35.990Z,2.77
2018-06-23T15:38:04.650Z,4.20
2018-06-23T15:40:33.289Z,3.07
2018-06-23T15:43:01.898Z,2.97
2018-06-23T15:45:30.473Z,4.10
2018-06-23T15:47:59.112Z,3.07
2018-06-23T15:50:27.703Z,2.57
2018-06-23T15:52:56.313Z,3.27
2018-06-23T15:55:24.905Z,2.53
2018-06-23T15:57:53.520Z,3.70
2018-06-23T16:00:22.096Z,3.50
2018-06-23T16:02:50.675Z,4.90
2018-06-23T16:05:19.303Z,3.43
2018-06-23T16:07:47.870Z,5.17
2018-06-23T16:10:20.974Z,2.80
2018-06-23T16:12:49.548Z,3.43
2018-06-23T16:15:18.358Z,5.97
2018-06-23T16:17:47.234Z,2.87
2018-06-23T16:20:15.845Z,3.43
2018-06-23T16:22:45.302Z,5.17
2018-06-23T16:25:14.060Z,3.87
2018-06-23T16:27:42.661Z,3.23
2018-06-23T16:30:11.261Z,3.43
2018-06-23T16:32:40.101Z,3.27
2018-06-23T16:35:08.889Z,2.67
2018-06-23T16:37:37.377Z,4.70
2018-06-23T16:40:06.025Z,4.43
2018-06-23T16:42:34.634Z,3.67
2018-06-23T16:45:03.341Z,2.37
2018-06-23T16:47:31.974Z,3.47
2018-06-23T16:50:00.641Z,2.60
2018-06-23T16:52:29.257Z,3.70
2018-06-23T16:54:57.901Z,3.57
2018-06-23T16:57:26.644Z,3.10
2018-06-23T16:59:55.273Z,3.37
2018-06-23T17:02:23.942Z,3.07
2018-06-23T17:04:52.570Z,3.97
2018-06-23T17:07:21.182Z,2.47
2018-06-23T17:09:49.834Z,2.70
2018-06-23T17:12:18.554Z,4.37
2018-06-23T17:14:47.155Z,2.97
2018-06-23T17:17:15.864Z,3.37
2018-06-23T17:19:44.517Z,3.13
2018-06-23T17:22:13.118Z,3.87
2018-06-23T17:24:41.697Z,2.73
2018-06-23T17:27:10.322Z,3.00
2018-06-23T17:29:38.889Z,2.93
2018-06-23T17:32:07.499Z,3.67
2018-06-23T17:34:37.108Z,3.10
2018-06-23T17:37:05.846Z,2.93
2018-06-23T17:39:34.465Z,2.30
2018-06-23T17:42:03.138Z,3.77
2018-06-23T17:44:31.744Z,2.73
2018-06-23T17:47:00.327Z,2.53
2018-06-23T17:49:28.933Z,2.40
2018-06-23T17:51:57.557Z,2.27
2018-06-23T17:54:26.206Z,4.33
2018-06-23T17:56:54.809Z,2.57
2018-06-23T17:59:23.448Z,2.73
2018-06-23T18:01:52.074Z,4.13
2018-06-23T18:04:20.660Z,3.03
2018-06-23T18:06:49.306Z,2.60
2018-06-23T18:09:17.919Z,2.53
2018-06-23T18:11:46.545Z,2.87
2018-06-23T18:14:15.145Z,3.57
2018-06-23T18:16:43.745Z,4.00
2018-06-23T18:19:12.766Z,2.20
2018-06-23T18:21:41.341Z,2.63
2018-06-23T18:24:09.943Z,2.57
2018-06-23T18:26:38.519Z,2.50
2018-06-23T18:29:07.142Z,3.23
2018-06-23T18:31:35.744Z,3.60
2018-06-23T18:34:04.426Z,2.90
2018-06-23T18:36:33.014Z,4.30
2018-06-23T18:39:01.634Z,3.33
2018-06-23T18:41:30.221Z,2.60
2018-06-23T18:43:58.816Z,3.53
2018-06-23T18:46:27.405Z,2.90
2018-06-23T18:48:56.148Z,3.00
2018-06-23T18:51:24.841Z,2.60
2018-06-23T18:53:53.659Z,3.33
2018-06-23T18:56:22.394Z,4.07
2018-06-23T18:58:51.078Z,5.73
2018-06-23T19:01:19.697Z,7.07
2018-06-23T19:03:48.309Z,11.33
2018-06-23T19:06:16.936Z,8.63
2018-06-23T19:08:45.193Z,7.00
2018-06-23T19:11:13.821Z,6.87
2018-06-23T19:13:42.389Z,7.37
2018-06-23T19:16:11.062Z,6.60
2018-06-23T19:18:39.638Z,8.80
2018-06-23T19:21:08.309Z,6.67
2018-06-23T19:23:36.891Z,4.67
2018-06-23T19:26:06.558Z,5.03
2018-06-23T19:28:35.176Z,3.00
2018-06-23T19:31:03.886Z,3.13
2018-06-23T19:33:32.494Z,3.57
2018-06-23T19:36:01.072Z,2.90
2018-06-23T19:38:29.653Z,3.83
2018-06-23T19:40:58.238Z,6.03
2018-06-23T19:43:26.900Z,2.83
2018-06-23T19:45:55.581Z,2.50
2018-06-23T19:48:24.209Z,3.60
2018-06-23T19:50:52.874Z,2.80
2018-06-23T19:53:21.457Z,3.07
2018-06-23T19:55:50.058Z,3.20
2018-06-23T19:58:18.662Z,5.53
2018-06-23T20:00:47.281Z,2.60
2018-06-23T20:03:15.849Z,3.10
2018-06-23T20:05:44.481Z,2.80
2018-06-23T20:08:13.128Z,3.03
2018-06-23T20:10:41.713Z,3.07
2018-06-23T20:13:10.297Z,5.20
2018-06-23T20:15:38.900Z,2.83
2018-06-23T20:18:07.531Z,3.50
2018-06-23T20:20:36.895Z,3.00
2018-06-23T20:23:05.566Z,2.70
2018-06-23T20:25:34.225Z,2.93
2018-06-23T20:28:02.827Z,3.00
2018-06-23T20:30:31.461Z,3.20
2018-06-23T20:33:00.020Z,5.17
2018-06-23T20:35:28.605Z,3.10
2018-06-23T20:37:59.541Z,4.70
2018-06-23T20:40:28.193Z,2.60
2018-06-23T20:42:56.754Z,2.63
2018-06-23T20:45:25.392Z,2.60
2018-06-23T20:47:54.815Z,2.70
2018-06-23T20:50:24.031Z,3.87
2018-06-23T20:52:52.629Z,2.83
2018-06-23T20:55:21.201Z,5.57
2018-06-23T20:57:49.866Z,2.97
2018-06-23T21:00:18.494Z,3.40
2018-06-23T21:02:47.125Z,4.27
2018-06-23T21:05:15.750Z,3.40
2018-06-23T21:07:44.325Z,3.50
2018-06-23T21:10:38.030Z,4.77
2018-06-23T21:13:06.641Z,4.20
2018-06-23T21:15:35.454Z,4.60
2018-06-23T21:18:05.325Z,3.73
2018-06-23T21:20:33.918Z,4.80
2018-06-23T21:23:02.953Z,3.93
2018-06-23T21:25:31.725Z,4.47
2018-06-23T21:28:00.422Z,4.20
2018-06-23T21:30:29.033Z,3.27
2018-06-23T21:32:57.609Z,3.47
2018-06-23T21:35:26.526Z,4.07
2018-06-23T21:37:55.192Z,3.73
2018-06-23T21:40:23.813Z,3.70
2018-06-23T21:42:52.430Z,3.80
2018-06-23T21:45:21.080Z,3.70
2018-06-23T21:47:49.657Z,4.23
2018-06-23T21:50:18.245Z,3.87
2018-06-23T21:52:46.849Z,4.87
2018-06-23T21:55:15.433Z,4.20
2018-06-23T21:57:44.064Z,4.37
2018-06-23T22:00:35.477Z,3.97
2018-06-23T22:03:06.301Z,3.83
2018-06-23T22:05:35.309Z,3.43
2018-06-23T22:08:04.021Z,5.77
2018-06-23T22:10:32.666Z,3.87
2018-06-23T22:13:01.266Z,5.37
2018-06-23T22:15:29.893Z,3.67
2018-06-23T22:17:58.612Z,4.10
2018-06-23T22:20:27.214Z,3.63
2018-06-23T22:22:55.779Z,4.07
2018-06-23T22:25:24.449Z,3.50
2018-06-23T22:27:53.037Z,5.97
2018-06-23T22:30:22.296Z,4.83
2018-06-23T22:32:51.865Z,3.67
2018-06-23T22:35:20.474Z,5.43
2018-06-23T22:37:49.073Z,3.83
2018-06-23T22:40:17.749Z,4.93
2018-06-23T22:42:46.379Z,4.17
2018-06-23T22:45:14.997Z,3.73
2018-06-23T22:47:43.613Z,6.37
2018-06-23T22:50:12.197Z,3.90
2018-06-23T22:52:40.805Z,4.10
2018-06-23T22:55:10.390Z,3.80
2018-06-23T22:57:39.147Z,4.23
2018-06-23T23:00:10.025Z,4.27
2018-06-23T23:02:38.685Z,5.97
2018-06-23T23:05:07.544Z,4.30
2018-06-23T23:07:36.673Z,4.07
2018-06-23T23:10:05.562Z,5.60
2018-06-23T23:12:34.150Z,4.10
2018-06-23T23:15:02.897Z,6.27
2018-06-23T23:17:32.629Z,4.70
2018-06-23T23:20:01.275Z,4.00
2018-06-23T23:22:30.067Z,5.10
2018-06-23T23:24:58.669Z,4.33
2018-06-23T23:27:27.334Z,5.03
2018-06-23T23:29:55.937Z,4.80
2018-06-23T23:32:24.501Z,4.60
2018-06-23T23:34:53.113Z,4.67
2018-06-23T23:37:21.845Z,4.37
2018-06-23T23:39:50.445Z,4.30
2018-06-23T23:42:19.702Z,4.13
2018-06-23T23:44:48.333Z,4.50
2018-06-23T23:47:17.695Z,5.03
2018-06-23T23:49:46.352Z,4.37
2018-06-23T23:52:14.929Z,4.57
2018-06-23T23:54:43.549Z,4.80
2018-06-23T23:57:12.110Z,4.53
2018-06-23T23:59:40.720Z,5.20
